LKLNLKTB

Guest
Details From LKLN - Plzen - Line
To LKTB - Turany
Flight Number -
Tags generated
Created
Modified
Stats Distance 138 nm / 255 km
Max Altitude 6,000 ft / 1,829 m
Waypoints 3
Social Downloads 1
Likes 0
Share VATSIM

Download

Looking for another format? Having issues loading an existing format? Contact us
Advertisement - Login to hide

Notes

Basic altitude profile: - Ascent Rate: 1000ft/min - Ascent Speed: 120kts - Cruise Altitude: 6000ft - Cruise Speed: 150kts - Descent Rate: 800ft/min - Descent Speed: 100kts

Route

LKLN NEPOV LKTB

ID Type Via Altitude Latitude Longitude Leg Dist Tot Dist Heading (true) Name
O LKLN APT - 0 ft / 0 m 49.67523˚ 13.27448˚ - 0 nm - Plzen - Line
NEPOV FIX - 6,000 ft / 1,829 m 49.62467˚ 14.08096˚ 31 nm 31 nm 95° / 96° -
O LKTB APT - 0 ft / 0 m 49.15102˚ 16.69317˚ 106 nm 137 nm 105° / 107° Turany

Altitude Profile

Advertisement - Login to hide

LKLN

Details ICAO LKLN
Name Plzen - Line
Region Czech Republic
Timezone Europe/Prague (UTC+1.0)
Stats Elevation 1,187 ft / 362 m (AMSL)
Location 49.675230° 13.274484°
Runways 1
Magnetic Variation 3.589° E

METAR

LKLN 181100Z AUTO 15002KT 9999 SCT023 00/M02 Q1023

Decode

TAF

Not found

Departure Runways

ID Width Length Bearing (true) Bearing (mag) Surface Threshold Offset Overrun Length
06 197 ft / 60 m 4,755 ft / 1,449 m 58.19° 54.60° Concrete 0 ft / 0 m 2,477 ft / 755 m
24 197 ft / 60 m 4,755 ft / 1,449 m 238.21° 234.62° Concrete 0 ft / 0 m 784 ft / 239 m

LKTB

Details ICAO LKTB (BRQ)
Name Turany
Region Czech Republic
Timezone Europe/Prague (UTC+1.0)
Stats Elevation 777 ft / 237 m (AMSL)
Location 49.151016° 16.693171°
Runways 2
Magnetic Variation 4.379° E

METAR

LKTB 181100Z 08003KT 9999 BKN040 01/M02 Q1024 NOSIG

Decode

TAF

TAF AMD LKTB 180830Z 1808/1912 VRB02KT 9999 SCT030 TEMPO 1808/1815 01006KT 7000 -SN BKN020 PROB40 TEMPO 1808/1811 1500 +SHSN BKN010TCU BECMG 1816/1818 CAVOK

Decode

Destination Runways

ID Width Length Bearing (true) Bearing (mag) Surface Threshold Offset Overrun Length
09 98 ft / 30 m 3,272 ft / 997 m 97.50° 93.12° Grass 0 ft / 0 m 0 ft / 0 m
10 197 ft / 60 m 8,674 ft / 2,644 m 97.52° 93.14° Concrete 0 ft / 0 m 0 ft / 0 m
27 98 ft / 30 m 3,272 ft / 997 m 277.51° 273.13° Grass 0 ft / 0 m 0 ft / 0 m
28 197 ft / 60 m 8,674 ft / 2,644 m 277.55° 273.17° Concrete 0 ft / 0 m 0 ft / 0 m

Approach Navaids

Runway Type Ident Frequency Range Bearing (true) Bearing (mag) Slope Elevation
28 Localiser BO 111.50 MHz 18 nm / 33 km 277.51° 273.13° - 771 ft / 235 m (AMSL)
28 Glidescope BO 111.50 MHz 10 nm / 19 km 277.53° 273.15° 3.00° 771 ft / 235 m (AMSL)
28 DME BO 111.50 MHz 18 nm / 33 km - - - 785 ft / 239 m (AMSL)